Camden, AL

12:17 AM CST on January 21, 2017 (GMT -0600)
Buena Vista | | Change Station
Active Advisory: Marine Fog Advisory

Elev 272 ft 31.79 °N, 87.26 °W | Updated 20 seconds ago

Mostly Cloudy
Mostly Cloudy
62.4 °F
Feels Like 62.4 °F
N
0.0
Wind Variable Wind from South

Today
High -- | Low -- °F
--% Chance of Precip.
Yesterday
High -- | Low -- °F
Precip. -- in
Pressure 29.84 in
Visibility 5.0 miles
Clouds Mostly Cloudy 300 ft
Mostly Cloudy 900 ft
Dew Point 62 °F
Humidity 97%
Rainfall 0.00 in
Snow Depth Not available.
6:48 AM 5:13 PM
Last Quarter, 38% visible
SPECI KPRN 210603Z AUTO 20004KT 5SM BR BKN003 BKN009 19/17 A2984 RMK AO2 T01890172
Pressure 29.84 in
Visibility 5.0 miles
Clouds Mostly Cloudy 300 ft
Mostly Cloudy 900 ft
Dew Point 62 °F
Humidity 97%
Rainfall 0.00 in
Snow Depth Not available.
6:48 AM 5:13 PM
Last Quarter, 38% visible
SPECI KPRN 210603Z AUTO 20004KT 5SM BR BKN003 BKN009 19/17 A2984 RMK AO2 T01890172

Get Your Daily Forecast Email!

Thanks for signing up!

Be on the lookout for a verification email in your inbox.

You'll start receiving the daily forecast at 8 AM.

×

10-Day Weather Forecast

Almanac

Astronomy

Jan. 21, 2017 Rise Set
Actual Time
Civil Twilight
Nautical Twilight
Astronomical Twilight
Moon
Length of Visible Light
Length of Day
Tomorrow will be .
, % of the Moon is Illuminated

Today's Extremes

State Highs State Lows

Community

WunderPhotos

Upload Photos

1,962,540 photos uploaded!

WunderBlog® & News

Nearby

Air Quality

  Air Quality AQ Index Pollutant
Not available.

Snow Depth

Station Depth Elevation

Earthquake Activity

City Distance Mag. Time & Date
Minimum magnitude displayed is 2.5.

Coastal Water Temperatures

Place Temperature

Stations

Nearby Weather Stations

Station Location Temp. Windchill Dew Point Humidity Wind Precip. Elev Updated Type
                   

Watches & Warnings

Marine Fog Advisory
Issued: 9:11 PM CST Jan. 20, 2017 – National Weather Service

... Dense fog advisory remains in effect until 4 am CST Saturday...

* visibility... areas of poor visibility less than one nautical
mile. Visibility should improve west of Pensacola by 4 am CST
as showers and thunderstorms develop. Later further east.

Precautionary/preparedness actions...

A dense fog advisory means visibilities will frequently be
reduced to less than one mile. Inexperienced mariners...
especially those operating smaller vessels should avoid
navigating in these conditions.